sensor_id;sensor_type;location;lat;lon;timestamp;temperature;humidity
11399;DHT22;5755;48.116;11.608;2023-10-09T00:01:28;13.60;98.30
11399;DHT22;5755;48.116;11.608;2023-10-09T00:03:57;13.50;98.60
11399;DHT22;5755;48.116;11.608;2023-10-09T00:06:26;13.50;98.70
11399;DHT22;5755;48.116;11.608;2023-10-09T00:09:03;13.50;98.70
11399;DHT22;5755;48.116;11.608;2023-10-09T00:11:42;13.50;98.70
11399;DHT22;5755;48.116;11.608;2023-10-09T00:14:11;13.50;98.60
11399;DHT22;5755;48.116;11.608;2023-10-09T00:16:41;13.60;98.60
11399;DHT22;5755;48.116;11.608;2023-10-09T00:19:13;13.70;98.50
11399;DHT22;5755;48.116;11.608;2023-10-09T00:21:44;13.70;98.30
11399;DHT22;5755;48.116;11.608;2023-10-09T00:24:11;13.70;98.30
11399;DHT22;5755;48.116;11.608;2023-10-09T00:26:49;13.70;98.40
11399;DHT22;5755;48.116;11.608;2023-10-09T00:29:18;13.70;98.60
11399;DHT22;5755;48.116;11.608;2023-10-09T00:31:51;13.70;98.20
11399;DHT22;5755;48.116;11.608;2023-10-09T00:34:22;13.70;98.20
11399;DHT22;5755;48.116;11.608;2023-10-09T00:36:52;13.70;98.40
11399;DHT22;5755;48.116;11.608;2023-10-09T00:39:20;13.60;98.40
11399;DHT22;5755;48.116;11.608;2023-10-09T00:42:04;13.60;98.50
11399;DHT22;5755;48.116;11.608;2023-10-09T00:44:33;13.60;98.60
11399;DHT22;5755;48.116;11.608;2023-10-09T00:47:06;13.60;98.60
11399;DHT22;5755;48.116;11.608;2023-10-09T00:49:47;13.60;98.60
11399;DHT22;5755;48.116;11.608;2023-10-09T00:52:15;13.60;98.70
11399;DHT22;5755;48.116;11.608;2023-10-09T00:54:52;13.60;98.60
11399;DHT22;5755;48.116;11.608;2023-10-09T00:57:27;13.70;98.50
11399;DHT22;5755;48.116;11.608;2023-10-09T00:59:59;13.70;98.40
11399;DHT22;5755;48.116;11.608;2023-10-09T01:02:39;13.70;98.30
11399;DHT22;5755;48.116;11.608;2023-10-09T01:05:10;13.70;98.40
11399;DHT22;5755;48.116;11.608;2023-10-09T01:07:46;13.70;98.50
11399;DHT22;5755;48.116;11.608;2023-10-09T01:10:13;13.70;98.50
11399;DHT22;5755;48.116;11.608;2023-10-09T01:12:42;13.70;98.50
11399;DHT22;5755;48.116;11.608;2023-10-09T01:15:12;13.60;98.50
11399;DHT22;5755;48.116;11.608;2023-10-09T01:18:02;13.70;98.60
11399;DHT22;5755;48.116;11.608;2023-10-09T01:20:32;13.70;99.00
11399;DHT22;5755;48.116;11.608;2023-10-09T01:23:09;13.70;98.60
11399;DHT22;5755;48.116;11.608;2023-10-09T01:25:36;13.70;98.60
11399;DHT22;5755;48.116;11.608;2023-10-09T01:28:10;13.60;98.60
11399;DHT22;5755;48.116;11.608;2023-10-09T01:30:42;13.60;98.60
11399;DHT22;5755;48.116;11.608;2023-10-09T01:33:10;13.70;98.70
11399;DHT22;5755;48.116;11.608;2023-10-09T01:35:48;13.70;98.60
11399;DHT22;5755;48.116;11.608;2023-10-09T01:38:19;13.70;98.60
11399;DHT22;5755;48.116;11.608;2023-10-09T01:40:56;13.70;98.50
11399;DHT22;5755;48.116;11.608;2023-10-09T01:43:32;13.80;98.50
11399;DHT22;5755;48.116;11.608;2023-10-09T01:45:59;13.80;98.50
11399;DHT22;5755;48.116;11.608;2023-10-09T01:48:30;13.80;98.40
11399;DHT22;5755;48.116;11.608;2023-10-09T01:51:01;13.80;98.20
11399;DHT22;5755;48.116;11.608;2023-10-09T01:53:32;13.80;98.20
11399;DHT22;5755;48.116;11.608;2023-10-09T01:56:10;13.80;98.10
11399;DHT22;5755;48.116;11.608;2023-10-09T01:58:41;13.80;97.70
11399;DHT22;5755;48.116;11.608;2023-10-09T02:01:10;13.80;97.60
11399;DHT22;5755;48.116;11.608;2023-10-09T02:03:39;13.80;97.70
11399;DHT22;5755;48.116;11.608;2023-10-09T02:06:08;13.80;97.80
11399;DHT22;5755;48.116;11.608;2023-10-09T02:08:52;13.80;97.90
11399;DHT22;5755;48.116;11.608;2023-10-09T02:11:20;13.80;98.10
11399;DHT22;5755;48.116;11.608;2023-10-09T02:14:02;13.80;98.10
11399;DHT22;5755;48.116;11.608;2023-10-09T02:16:41;13.80;98.20
11399;DHT22;5755;48.116;11.608;2023-10-09T02:19:09;13.70;98.20
11399;DHT22;5755;48.116;11.608;2023-10-09T02:21:54;13.70;98.30
11399;DHT22;5755;48.116;11.608;2023-10-09T02:24:24;13.70;98.30
11399;DHT22;5755;48.116;11.608;2023-10-09T02:27:08;13.70;98.30
11399;DHT22;5755;48.116;11.608;2023-10-09T02:29:37;13.80;98.10
11399;DHT22;5755;48.116;11.608;2023-10-09T02:32:04;13.80;98.00
11399;DHT22;5755;48.116;11.608;2023-10-09T02:34:43;13.80;97.60
11399;DHT22;5755;48.116;11.608;2023-10-09T02:37:12;13.80;97.50
11399;DHT22;5755;48.116;11.608;2023-10-09T02:39:41;13.80;97.50
11399;DHT22;5755;48.116;11.608;2023-10-09T02:42:14;13.70;97.60
11399;DHT22;5755;48.116;11.608;2023-10-09T02:44:49;13.70;97.70
11399;DHT22;5755;48.116;11.608;2023-10-09T02:47:17;13.60;97.80
11399;DHT22;5755;48.116;11.608;2023-10-09T02:49:46;13.60;97.90
11399;DHT22;5755;48.116;11.608;2023-10-09T02:52:15;13.60;98.00
11399;DHT22;5755;48.116;11.608;2023-10-09T02:54:46;13.50;98.00
11399;DHT22;5755;48.116;11.608;2023-10-09T02:57:13;13.50;98.30
11399;DHT22;5755;48.116;11.608;2023-10-09T02:59:48;13.40;98.20
11399;DHT22;5755;48.116;11.608;2023-10-09T03:02:17;13.40;98.30
11399;DHT22;5755;48.116;11.608;2023-10-09T03:04:44;13.30;98.30
11399;DHT22;5755;48.116;11.608;2023-10-09T03:07:11;13.30;98.40
11399;DHT22;5755;48.116;11.608;2023-10-09T03:09:39;13.30;98.50
11399;DHT22;5755;48.116;11.608;2023-10-09T03:12:08;13.30;98.50
11399;DHT22;5755;48.116;11.608;2023-10-09T03:14:39;13.30;98.40
11399;DHT22;5755;48.116;11.608;2023-10-09T03:17:07;13.30;98.30
11399;DHT22;5755;48.116;11.608;2023-10-09T03:19:37;13.30;98.20
11399;DHT22;5755;48.116;11.608;2023-10-09T03:22:04;13.30;98.20
11399;DHT22;5755;48.116;11.608;2023-10-09T03:24:34;13.20;98.30
11399;DHT22;5755;48.116;11.608;2023-10-09T03:27:02;13.20;98.20
11399;DHT22;5755;48.116;11.608;2023-10-09T03:29:30;13.20;98.10
11399;DHT22;5755;48.116;11.608;2023-10-09T03:31:59;13.20;97.90
11399;DHT22;5755;48.116;11.608;2023-10-09T03:34:26;13.30;97.80
11399;DHT22;5755;48.116;11.608;2023-10-09T03:36:53;13.30;97.60
11399;DHT22;5755;48.116;11.608;2023-10-09T03:39:29;13.30;97.60
11399;DHT22;5755;48.116;11.608;2023-10-09T03:42:07;13.30;97.50
11399;DHT22;5755;48.116;11.608;2023-10-09T03:44:42;13.30;97.50
11399;DHT22;5755;48.116;11.608;2023-10-09T03:47:15;13.30;97.40
11399;DHT22;5755;48.116;11.608;2023-10-09T03:49:42;13.30;97.50
11399;DHT22;5755;48.116;11.608;2023-10-09T03:52:09;13.30;97.50
11399;DHT22;5755;48.116;11.608;2023-10-09T03:54:43;13.30;97.50
11399;DHT22;5755;48.116;11.608;2023-10-09T03:57:11;13.30;97.40
11399;DHT22;5755;48.116;11.608;2023-10-09T03:59:39;13.30;97.00
11399;DHT22;5755;48.116;11.608;2023-10-09T04:02:09;13.40;96.50
11399;DHT22;5755;48.116;11.608;2023-10-09T04:04:37;13.40;96.50
11399;DHT22;5755;48.116;11.608;2023-10-09T04:07:04;13.40;96.50
11399;DHT22;5755;48.116;11.608;2023-10-09T04:09:32;13.40;96.50
11399;DHT22;5755;48.116;11.608;2023-10-09T04:12:05;13.40;96.50
11399;DHT22;5755;48.116;11.608;2023-10-09T04:14:50;13.40;96.50
11399;DHT22;5755;48.116;11.608;2023-10-09T04:17:22;13.50;96.10
11399;DHT22;5755;48.116;11.608;2023-10-09T04:20:02;13.50;95.90
11399;DHT22;5755;48.116;11.608;2023-10-09T04:23:12;13.50;96.00
11399;DHT22;5755;48.116;11.608;2023-10-09T04:25:41;13.40;95.90
11399;DHT22;5755;48.116;11.608;2023-10-09T04:28:11;13.40;96.00
11399;DHT22;5755;48.116;11.608;2023-10-09T04:30:45;13.50;96.10
11399;DHT22;5755;48.116;11.608;2023-10-09T04:33:20;13.50;95.90
11399;DHT22;5755;48.116;11.608;2023-10-09T04:36:07;13.50;95.80
11399;DHT22;5755;48.116;11.608;2023-10-09T04:38:54;13.40;95.90
11399;DHT22;5755;48.116;11.608;2023-10-09T04:41:41;13.40;96.00
11399;DHT22;5755;48.116;11.608;2023-10-09T04:44:41;13.40;96.10
11399;DHT22;5755;48.116;11.608;2023-10-09T04:47:25;13.30;96.50
11399;DHT22;5755;48.116;11.608;2023-10-09T04:50:02;13.30;96.50
11399;DHT22;5755;48.116;11.608;2023-10-09T04:52:36;13.30;96.50
11399;DHT22;5755;48.116;11.608;2023-10-09T04:55:18;13.30;96.50
11399;DHT22;5755;48.116;11.608;2023-10-09T04:57:50;13.30;96.50
11399;DHT22;5755;48.116;11.608;2023-10-09T05:00:28;13.30;96.50
11399;DHT22;5755;48.116;11.608;2023-10-09T05:03:12;13.30;96.50
11399;DHT22;5755;48.116;11.608;2023-10-09T05:05:52;13.30;96.50
11399;DHT22;5755;48.116;11.608;2023-10-09T05:08:26;13.30;96.50
11399;DHT22;5755;48.116;11.608;2023-10-09T05:10:56;13.30;96.50
11399;DHT22;5755;48.116;11.608;2023-10-09T05:13:40;13.30;96.50
11399;DHT22;5755;48.116;11.608;2023-10-09T05:16:23;13.30;96.50
11399;DHT22;5755;48.116;11.608;2023-10-09T05:18:52;13.30;96.30
11399;DHT22;5755;48.116;11.608;2023-10-09T05:21:24;13.30;96.50
11399;DHT22;5755;48.116;11.608;2023-10-09T05:24:06;13.30;96.30
11399;DHT22;5755;48.116;11.608;2023-10-09T05:26:52;13.30;96.10
11399;DHT22;5755;48.116;11.608;2023-10-09T05:29:37;13.30;95.90
11399;DHT22;5755;48.116;11.608;2023-10-09T05:32:14;13.40;95.90
11399;DHT22;5755;48.116;11.608;2023-10-09T05:34:53;13.40;95.80
11399;DHT22;5755;48.116;11.608;2023-10-09T05:37:42;13.40;95.70
11399;DHT22;5755;48.116;11.608;2023-10-09T05:40:12;13.40;95.70
11399;DHT22;5755;48.116;11.608;2023-10-09T05:42:48;13.40;95.80
11399;DHT22;5755;48.116;11.608;2023-10-09T05:45:26;13.40;95.70
11399;DHT22;5755;48.116;11.608;2023-10-09T05:48:24;13.40;95.70
11399;DHT22;5755;48.116;11.608;2023-10-09T05:51:09;13.40;95.60
11399;DHT22;5755;48.116;11.608;2023-10-09T05:54:07;13.60;95.20
11399;DHT22;5755;48.116;11.608;2023-10-09T05:56:52;13.50;95.20
11399;DHT22;5755;48.116;11.608;2023-10-09T05:59:41;13.60;95.40
11399;DHT22;5755;48.116;11.608;2023-10-09T06:02:25;13.70;95.10
11399;DHT22;5755;48.116;11.608;2023-10-09T06:05:19;13.70;94.70
11399;DHT22;5755;48.116;11.608;2023-10-09T06:08:00;13.80;94.80
11399;DHT22;5755;48.116;11.608;2023-10-09T06:10:35;13.70;94.90
11399;DHT22;5755;48.116;11.608;2023-10-09T06:13:07;13.70;95.20
11399;DHT22;5755;48.116;11.608;2023-10-09T06:15:55;13.60;95.70
11399;DHT22;5755;48.116;11.608;2023-10-09T06:18:46;13.60;96.10
11399;DHT22;5755;48.116;11.608;2023-10-09T06:21:20;13.60;96.60
11399;DHT22;5755;48.116;11.608;2023-10-09T06:24:26;13.80;96.60
11399;DHT22;5755;48.116;11.608;2023-10-09T06:27:00;14.20;94.80
11399;DHT22;5755;48.116;11.608;2023-10-09T06:29:40;14.40;94.50
11399;DHT22;5755;48.116;11.608;2023-10-09T06:32:17;14.40;94.50
11399;DHT22;5755;48.116;11.608;2023-10-09T06:35:03;14.60;94.00
11399;DHT22;5755;48.116;11.608;2023-10-09T06:37:48;14.80;93.60
11399;DHT22;5755;48.116;11.608;2023-10-09T06:40:34;14.80;93.60
11399;DHT22;5755;48.116;11.608;2023-10-09T06:43:21;14.90;93.60
11399;DHT22;5755;48.116;11.608;2023-10-09T06:45:55;15.00;93.90
11399;DHT22;5755;48.116;11.608;2023-10-09T06:48:43;15.10;93.70
11399;DHT22;5755;48.116;11.608;2023-10-09T06:51:21;15.20;94.20
11399;DHT22;5755;48.116;11.608;2023-10-09T06:54:06;15.30;94.00
11399;DHT22;5755;48.116;11.608;2023-10-09T06:56:43;15.40;93.60
11399;DHT22;5755;48.116;11.608;2023-10-09T06:59:29;15.40;93.20
11399;DHT22;5755;48.116;11.608;2023-10-09T07:02:09;15.50;93.60
11399;DHT22;5755;48.116;11.608;2023-10-09T07:04:52;15.60;93.30
11399;DHT22;5755;48.116;11.608;2023-10-09T07:07:21;15.80;91.80
11399;DHT22;5755;48.116;11.608;2023-10-09T07:09:51;15.90;91.70
11399;DHT22;5755;48.116;11.608;2023-10-09T07:12:35;16.00;91.70
11399;DHT22;5755;48.116;11.608;2023-10-09T07:15:11;16.10;92.00
11399;DHT22;5755;48.116;11.608;2023-10-09T07:17:56;16.20;91.40
11399;DHT22;5755;48.116;11.608;2023-10-09T07:20:43;16.30;91.30
11399;DHT22;5755;48.116;11.608;2023-10-09T07:23:24;16.40;90.70
11399;DHT22;5755;48.116;11.608;2023-10-09T07:26:02;16.50;89.90
11399;DHT22;5755;48.116;11.608;2023-10-09T07:28:43;16.60;89.20
11399;DHT22;5755;48.116;11.608;2023-10-09T07:31:19;16.60;88.50
11399;DHT22;5755;48.116;11.608;2023-10-09T07:34:05;16.60;88.00
11399;DHT22;5755;48.116;11.608;2023-10-09T07:36:53;16.60;87.90
11399;DHT22;5755;48.116;11.608;2023-10-09T07:39:22;16.60;87.10
11399;DHT22;5755;48.116;11.608;2023-10-09T07:41:49;16.70;86.60
11399;DHT22;5755;48.116;11.608;2023-10-09T07:44:32;16.80;85.60
11399;DHT22;5755;48.116;11.608;2023-10-09T07:47:05;17.00;84.30
11399;DHT22;5755;48.116;11.608;2023-10-09T07:49:43;17.40;79.00
11399;DHT22;5755;48.116;11.608;2023-10-09T07:52:14;17.80;73.30
11399;DHT22;5755;48.116;11.608;2023-10-09T07:54:40;18.20;61.30
11399;DHT22;5755;48.116;11.608;2023-10-09T07:57:16;18.70;50.30
11399;DHT22;5755;48.116;11.608;2023-10-09T07:59:44;19.00;50.50
11399;DHT22;5755;48.116;11.608;2023-10-09T08:02:28;19.30;43.10
11399;DHT22;5755;48.116;11.608;2023-10-09T08:05:02;19.40;41.20
11399;DHT22;5755;48.116;11.608;2023-10-09T08:07:44;19.60;39.80
11399;DHT22;5755;48.116;11.608;2023-10-09T08:10:23;19.70;38.90
11399;DHT22;5755;48.116;11.608;2023-10-09T08:13:07;19.90;37.90
11399;DHT22;5755;48.116;11.608;2023-10-09T08:16:00;20.00;34.10
11399;DHT22;5755;48.116;11.608;2023-10-09T08:18:34;20.20;32.20
11399;DHT22;5755;48.116;11.608;2023-10-09T08:21:10;20.30;32.30
11399;DHT22;5755;48.116;11.608;2023-10-09T08:24:07;20.50;31.80
11399;DHT22;5755;48.116;11.608;2023-10-09T08:26:53;20.50;29.90
11399;DHT22;5755;48.116;11.608;2023-10-09T08:29:40;20.60;29.60
11399;DHT22;5755;48.116;11.608;2023-10-09T08:32:12;20.70;29.90
11399;DHT22;5755;48.116;11.608;2023-10-09T08:35:06;20.80;29.00
11399;DHT22;5755;48.116;11.608;2023-10-09T08:37:44;21.00;28.70
11399;DHT22;5755;48.116;11.608;2023-10-09T08:40:14;21.00;26.60
11399;DHT22;5755;48.116;11.608;2023-10-09T08:42:45;21.20;26.40
11399;DHT22;5755;48.116;11.608;2023-10-09T08:45:16;21.40;25.90
11399;DHT22;5755;48.116;11.608;2023-10-09T08:47:51;21.50;24.60
11399;DHT22;5755;48.116;11.608;2023-10-09T08:50:19;21.90;23.30
11399;DHT22;5755;48.116;11.608;2023-10-09T08:52:47;22.00;23.20
11399;DHT22;5755;48.116;11.608;2023-10-09T08:55:14;22.00;21.90
11399;DHT22;5755;48.116;11.608;2023-10-09T08:57:42;22.00;22.80
11399;DHT22;5755;48.116;11.608;2023-10-09T09:00:16;21.90;22.90
11399;DHT22;5755;48.116;11.608;2023-10-09T09:02:47;21.70;23.00
11399;DHT22;5755;48.116;11.608;2023-10-09T09:05:20;21.60;24.00
11399;DHT22;5755;48.116;11.608;2023-10-09T09:07:47;21.60;23.60
11399;DHT22;5755;48.116;11.608;2023-10-09T09:10:13;21.50;24.30
11399;DHT22;5755;48.116;11.608;2023-10-09T09:12:45;21.50;24.80
11399;DHT22;5755;48.116;11.608;2023-10-09T09:15:14;21.50;24.10
11399;DHT22;5755;48.116;11.608;2023-10-09T09:17:46;21.60;23.20
11399;DHT22;5755;48.116;11.608;2023-10-09T09:20:24;21.80;21.80
11399;DHT22;5755;48.116;11.608;2023-10-09T09:22:56;21.70;23.20
11399;DHT22;5755;48.116;11.608;2023-10-09T09:25:23;21.70;24.40
11399;DHT22;5755;48.116;11.608;2023-10-09T09:27:51;21.70;24.50
11399;DHT22;5755;48.116;11.608;2023-10-09T09:30:24;21.70;23.20
11399;DHT22;5755;48.116;11.608;2023-10-09T09:32:57;21.90;23.40
11399;DHT22;5755;48.116;11.608;2023-10-09T09:35:39;22.10;22.00
11399;DHT22;5755;48.116;11.608;2023-10-09T09:38:08;22.30;21.80
11399;DHT22;5755;48.116;11.608;2023-10-09T09:40:43;22.40;20.10
11399;DHT22;5755;48.116;11.608;2023-10-09T09:43:13;22.50;20.60
11399;DHT22;5755;48.116;11.608;2023-10-09T09:45:47;22.50;21.10
11399;DHT22;5755;48.116;11.608;2023-10-09T09:48:15;22.60;20.20
11399;DHT22;5755;48.116;11.608;2023-10-09T09:50:46;22.80;19.40
11399;DHT22;5755;48.116;11.608;2023-10-09T09:53:14;22.80;20.00
11399;DHT22;5755;48.116;11.608;2023-10-09T09:55:46;22.60;20.00
11399;DHT22;5755;48.116;11.608;2023-10-09T09:58:18;22.60;19.50
11399;DHT22;5755;48.116;11.608;2023-10-09T10:00:47;22.50;20.40
11399;DHT22;5755;48.116;11.608;2023-10-09T10:03:21;22.50;19.00
11399;DHT22;5755;48.116;11.608;2023-10-09T10:05:50;22.40;20.00
11399;DHT22;5755;48.116;11.608;2023-10-09T10:08:19;22.40;20.50
11399;DHT22;5755;48.116;11.608;2023-10-09T10:10:47;22.40;19.90
11399;DHT22;5755;48.116;11.608;2023-10-09T10:13:16;22.40;19.80
11399;DHT22;5755;48.116;11.608;2023-10-09T10:16:00;22.40;19.40
11399;DHT22;5755;48.116;11.608;2023-10-09T10:18:53;22.40;18.80
11399;DHT22;5755;48.116;11.608;2023-10-09T10:21:28;22.70;18.30
11399;DHT22;5755;48.116;11.608;2023-10-09T10:24:40;22.70;18.10
11399;DHT22;5755;48.116;11.608;2023-10-09T10:27:19;22.90;18.30
11399;DHT22;5755;48.116;11.608;2023-10-09T10:32:56;23.30;17.50
11399;DHT22;5755;48.116;11.608;2023-10-09T10:35:35;23.60;15.10
11399;DHT22;5755;48.116;11.608;2023-10-09T10:38:28;23.50;15.80
11399;DHT22;5755;48.116;11.608;2023-10-09T10:41:10;23.50;15.90
11399;DHT22;5755;48.116;11.608;2023-10-09T10:43:40;23.40;15.50
11399;DHT22;5755;48.116;11.608;2023-10-09T10:46:21;23.60;15.20
11399;DHT22;5755;48.116;11.608;2023-10-09T10:48:56;23.50;14.80
11399;DHT22;5755;48.116;11.608;2023-10-09T10:51:26;23.40;14.00
11399;DHT22;5755;48.116;11.608;2023-10-09T10:54:02;23.30;15.20
11399;DHT22;5755;48.116;11.608;2023-10-09T10:56:43;23.40;14.00
11399;DHT22;5755;48.116;11.608;2023-10-09T10:59:14;23.20;14.90
11399;DHT22;5755;48.116;11.608;2023-10-09T11:01:48;23.20;14.50
11399;DHT22;5755;48.116;11.608;2023-10-09T11:04:39;23.20;15.00
11399;DHT22;5755;48.116;11.608;2023-10-09T11:07:08;23.20;14.60
11399;DHT22;5755;48.116;11.608;2023-10-09T11:09:45;23.20;13.90
11399;DHT22;5755;48.116;11.608;2023-10-09T11:12:42;23.20;13.00
11399;DHT22;5755;48.116;11.608;2023-10-09T11:15:30;23.10;14.60
11399;DHT22;5755;48.116;11.608;2023-10-09T11:18:04;23.10;15.30
11399;DHT22;5755;48.116;11.608;2023-10-09T11:20:35;23.10;14.50
11399;DHT22;5755;48.116;11.608;2023-10-09T11:23:04;23.20;14.60
11399;DHT22;5755;48.116;11.608;2023-10-09T11:25:45;23.40;15.60
11399;DHT22;5755;48.116;11.608;2023-10-09T11:28:18;23.80;13.90
11399;DHT22;5755;48.116;11.608;2023-10-09T11:31:08;24.00;13.60
11399;DHT22;5755;48.116;11.608;2023-10-09T11:33:44;24.40;13.80
11399;DHT22;5755;48.116;11.608;2023-10-09T11:36:11;24.70;14.00
11399;DHT22;5755;48.116;11.608;2023-10-09T11:38:37;24.90;11.40
11399;DHT22;5755;48.116;11.608;2023-10-09T11:41:16;24.70;12.10
11399;DHT22;5755;48.116;11.608;2023-10-09T11:43:50;24.60;11.60
11399;DHT22;5755;48.116;11.608;2023-10-09T11:46:17;24.40;10.80
11399;DHT22;5755;48.116;11.608;2023-10-09T11:49:08;24.40;11.20
11399;DHT22;5755;48.116;11.608;2023-10-09T11:52:09;24.60;11.20
11399;DHT22;5755;48.116;11.608;2023-10-09T11:54:50;24.50;11.80
11399;DHT22;5755;48.116;11.608;2023-10-09T11:57:18;24.50;11.60
11399;DHT22;5755;48.116;11.608;2023-10-09T11:59:46;24.60;12.10
11399;DHT22;5755;48.116;11.608;2023-10-09T12:02:17;24.50;11.20
11399;DHT22;5755;48.116;11.608;2023-10-09T12:04:46;24.30;10.30
11399;DHT22;5755;48.116;11.608;2023-10-09T12:07:14;24.00;10.60
11399;DHT22;5755;48.116;11.608;2023-10-09T12:09:41;23.80;11.70
11399;DHT22;5755;48.116;11.608;2023-10-09T12:12:08;23.80;11.10
11399;DHT22;5755;48.116;11.608;2023-10-09T12:14:37;23.80;10.50
11399;DHT22;5755;48.116;11.608;2023-10-09T12:17:05;23.70;12.00
11399;DHT22;5755;48.116;11.608;2023-10-09T12:19:34;23.90;11.70
11399;DHT22;5755;48.116;11.608;2023-10-09T12:22:01;23.90;12.20
11399;DHT22;5755;48.116;11.608;2023-10-09T12:24:29;23.80;11.50
11399;DHT22;5755;48.116;11.608;2023-10-09T12:26:56;23.70;11.00
11399;DHT22;5755;48.116;11.608;2023-10-09T12:29:23;23.60;10.80
11399;DHT22;5755;48.116;11.608;2023-10-09T12:31:56;23.50;11.50
11399;DHT22;5755;48.116;11.608;2023-10-09T12:34:25;23.40;11.90
11399;DHT22;5755;48.116;11.608;2023-10-09T12:36:53;23.30;13.10
11399;DHT22;5755;48.116;11.608;2023-10-09T12:39:20;23.20;13.00
11399;DHT22;5755;48.116;11.608;2023-10-09T12:41:47;23.20;13.00
11399;DHT22;5755;48.116;11.608;2023-10-09T12:44:14;23.10;11.80
11399;DHT22;5755;48.116;11.608;2023-10-09T12:46:44;23.00;12.90
11399;DHT22;5755;48.116;11.608;2023-10-09T12:49:19;22.90;12.80
11399;DHT22;5755;48.116;11.608;2023-10-09T12:51:50;22.80;12.80
11399;DHT22;5755;48.116;11.608;2023-10-09T12:54:17;22.80;12.80
11399;DHT22;5755;48.116;11.608;2023-10-09T12:56:46;22.60;12.70
11399;DHT22;5755;48.116;11.608;2023-10-09T12:59:15;22.50;12.60
11399;DHT22;5755;48.116;11.608;2023-10-09T13:01:43;22.40;12.50
11399;DHT22;5755;48.116;11.608;2023-10-09T13:04:10;22.40;12.50
11399;DHT22;5755;48.116;11.608;2023-10-09T13:06:41;22.30;12.40
11399;DHT22;5755;48.116;11.608;2023-10-09T13:09:10;22.30;12.50
11399;DHT22;5755;48.116;11.608;2023-10-09T13:11:36;22.10;13.40
11399;DHT22;5755;48.116;11.608;2023-10-09T13:14:04;22.10;13.90
11399;DHT22;5755;48.116;11.608;2023-10-09T13:16:37;22.20;13.70
11399;DHT22;5755;48.116;11.608;2023-10-09T13:19:04;22.20;14.50
11399;DHT22;5755;48.116;11.608;2023-10-09T13:21:35;22.20;14.10
11399;DHT22;5755;48.116;11.608;2023-10-09T13:24:08;22.10;14.70
11399;DHT22;5755;48.116;11.608;2023-10-09T13:26:38;22.10;14.20
11399;DHT22;5755;48.116;11.608;2023-10-09T13:29:07;22.10;14.70
11399;DHT22;5755;48.116;11.608;2023-10-09T13:31:35;22.00;15.30
11399;DHT22;5755;48.116;11.608;2023-10-09T13:34:04;21.90;15.50
11399;DHT22;5755;48.116;11.608;2023-10-09T13:36:32;21.90;15.50
11399;DHT22;5755;48.116;11.608;2023-10-09T13:39:02;21.90;15.40
11399;DHT22;5755;48.116;11.608;2023-10-09T13:41:48;21.80;15.90
11399;DHT22;5755;48.116;11.608;2023-10-09T13:44:15;21.70;16.60
11399;DHT22;5755;48.116;11.608;2023-10-09T13:46:42;21.70;17.30
11399;DHT22;5755;48.116;11.608;2023-10-09T13:49:10;21.60;16.60
11399;DHT22;5755;48.116;11.608;2023-10-09T13:51:39;21.60;16.20
11399;DHT22;5755;48.116;11.608;2023-10-09T13:54:09;21.50;16.30
11399;DHT22;5755;48.116;11.608;2023-10-09T13:56:43;21.30;17.00
11399;DHT22;5755;48.116;11.608;2023-10-09T13:59:12;21.20;17.70
11399;DHT22;5755;48.116;11.608;2023-10-09T14:01:39;21.10;17.40
11399;DHT22;5755;48.116;11.608;2023-10-09T14:04:13;21.20;18.60
11399;DHT22;5755;48.116;11.608;2023-10-09T14:06:44;21.00;21.10
11399;DHT22;5755;48.116;11.608;2023-10-09T14:09:13;20.80;23.90
11399;DHT22;5755;48.116;11.608;2023-10-09T14:11:55;20.60;25.90
11399;DHT22;5755;48.116;11.608;2023-10-09T14:14:33;20.40;27.30
11399;DHT22;5755;48.116;11.608;2023-10-09T14:17:04;20.30;27.60
11399;DHT22;5755;48.116;11.608;2023-10-09T14:19:38;20.30;32.30
11399;DHT22;5755;48.116;11.608;2023-10-09T14:22:04;20.00;36.00
11399;DHT22;5755;48.116;11.608;2023-10-09T14:24:33;19.80;40.00
11399;DHT22;5755;48.116;11.608;2023-10-09T14:27:00;19.70;45.70
11399;DHT22;5755;48.116;11.608;2023-10-09T14:29:29;19.60;47.60
11399;DHT22;5755;48.116;11.608;2023-10-09T14:31:58;19.60;46.20
11399;DHT22;5755;48.116;11.608;2023-10-09T14:34:28;19.60;51.20
11399;DHT22;5755;48.116;11.608;2023-10-09T14:36:58;19.50;49.40
11399;DHT22;5755;48.116;11.608;2023-10-09T14:39:27;19.50;46.90
11399;DHT22;5755;48.116;11.608;2023-10-09T14:41:54;19.50;43.80
11399;DHT22;5755;48.116;11.608;2023-10-09T14:44:23;19.50;43.10
11399;DHT22;5755;48.116;11.608;2023-10-09T14:46:54;19.50;41.90
11399;DHT22;5755;48.116;11.608;2023-10-09T14:49:23;19.50;41.50
11399;DHT22;5755;48.116;11.608;2023-10-09T14:51:50;19.50;42.10
11399;DHT22;5755;48.116;11.608;2023-10-09T14:54:17;19.50;43.10
11399;DHT22;5755;48.116;11.608;2023-10-09T14:56:44;19.40;43.20
11399;DHT22;5755;48.116;11.608;2023-10-09T14:59:12;19.40;42.30
11399;DHT22;5755;48.116;11.608;2023-10-09T15:01:39;19.40;42.10
11399;DHT22;5755;48.116;11.608;2023-10-09T15:04:06;19.40;41.60
11399;DHT22;5755;48.116;11.608;2023-10-09T15:06:37;19.50;39.80
11399;DHT22;5755;48.116;11.608;2023-10-09T15:09:04;19.50;37.80
11399;DHT22;5755;48.116;11.608;2023-10-09T15:11:35;19.60;38.90
11399;DHT22;5755;48.116;11.608;2023-10-09T15:14:04;19.70;39.50
11399;DHT22;5755;48.116;11.608;2023-10-09T15:16:32;19.70;40.90
11399;DHT22;5755;48.116;11.608;2023-10-09T15:18:59;19.70;42.10
11399;DHT22;5755;48.116;11.608;2023-10-09T15:21:28;19.70;44.40
11399;DHT22;5755;48.116;11.608;2023-10-09T15:23:59;19.70;45.40
11399;DHT22;5755;48.116;11.608;2023-10-09T15:26:26;19.70;49.00
11399;DHT22;5755;48.116;11.608;2023-10-09T15:29:00;19.70;49.60
11399;DHT22;5755;48.116;11.608;2023-10-09T15:31:30;19.60;50.40
11399;DHT22;5755;48.116;11.608;2023-10-09T15:33:58;19.50;50.70
11399;DHT22;5755;48.116;11.608;2023-10-09T15:36:25;19.50;51.70
11399;DHT22;5755;48.116;11.608;2023-10-09T15:38:54;19.50;51.70
11399;DHT22;5755;48.116;11.608;2023-10-09T15:41:27;19.40;50.40
11399;DHT22;5755;48.116;11.608;2023-10-09T15:43:55;19.40;50.70
11399;DHT22;5755;48.116;11.608;2023-10-09T15:46:24;19.30;49.20
11399;DHT22;5755;48.116;11.608;2023-10-09T15:48:52;19.40;48.10
11399;DHT22;5755;48.116;11.608;2023-10-09T15:51:21;19.40;47.60
11399;DHT22;5755;48.116;11.608;2023-10-09T15:53:48;19.30;50.10
11399;DHT22;5755;48.116;11.608;2023-10-09T15:56:17;19.30;51.20
11399;DHT22;5755;48.116;11.608;2023-10-09T15:58:45;19.20;49.30
11399;DHT22;5755;48.116;11.608;2023-10-09T16:01:13;19.10;50.00
11399;DHT22;5755;48.116;11.608;2023-10-09T16:03:41;19.00;52.60
11399;DHT22;5755;48.116;11.608;2023-10-09T16:06:09;18.90;54.90
11399;DHT22;5755;48.116;11.608;2023-10-09T16:08:38;18.90;54.90
11399;DHT22;5755;48.116;11.608;2023-10-09T16:11:05;18.90;54.90
11399;DHT22;5755;48.116;11.608;2023-10-09T16:13:33;18.80;54.80
11399;DHT22;5755;48.116;11.608;2023-10-09T16:16:01;18.70;54.80